sensor_id;sensor_type;location;lat;lon;timestamp;temperature;humidity
75457;SHT31;64036;48.266;14.192;2023-03-01T00:01:39;1.47;63.49
75457;SHT31;64036;48.266;14.192;2023-03-01T00:04:05;1.45;63.43
75457;SHT31;64036;48.266;14.192;2023-03-01T00:06:41;1.40;63.46
75457;SHT31;64036;48.266;14.192;2023-03-01T00:09:14;1.38;63.51
75457;SHT31;64036;48.266;14.192;2023-03-01T00:11:52;1.33;63.85
75457;SHT31;64036;48.266;14.192;2023-03-01T00:14:21;1.28;64.06
75457;SHT31;64036;48.266;14.192;2023-03-01T00:17:17;1.23;64.20
75457;SHT31;64036;48.266;14.192;2023-03-01T00:19:42;1.18;64.37
75457;SHT31;64036;48.266;14.192;2023-03-01T00:22:08;1.15;64.46
75457;SHT31;64036;48.266;14.192;2023-03-01T00:24:41;1.14;64.56
75457;SHT31;64036;48.266;14.192;2023-03-01T00:27:17;1.12;64.30
75457;SHT31;64036;48.266;14.192;2023-03-01T00:29:43;1.16;64.16
75457;SHT31;64036;48.266;14.192;2023-03-01T00:32:20;1.18;64.11
75457;SHT31;64036;48.266;14.192;2023-03-01T00:34:54;1.22;63.69
75457;SHT31;64036;48.266;14.192;2023-03-01T00:37:25;1.23;63.77
75457;SHT31;64036;48.266;14.192;2023-03-01T00:39:59;1.25;63.52
75457;SHT31;64036;48.266;14.192;2023-03-01T00:42:25;1.28;63.34
75457;SHT31;64036;48.266;14.192;2023-03-01T00:44:51;1.29;63.36
75457;SHT31;64036;48.266;14.192;2023-03-01T00:47:17;1.28;63.38
75457;SHT31;64036;48.266;14.192;2023-03-01T00:49:46;1.25;63.48
75457;SHT31;64036;48.266;14.192;2023-03-01T00:52:11;1.23;63.32
75457;SHT31;64036;48.266;14.192;2023-03-01T00:54:37;1.23;63.36
75457;SHT31;64036;48.266;14.192;2023-03-01T00:57:03;1.24;63.17
75457;SHT31;64036;48.266;14.192;2023-03-01T00:59:41;1.24;63.37
75457;SHT31;64036;48.266;14.192;2023-03-01T01:02:07;1.21;63.49
75457;SHT31;64036;48.266;14.192;2023-03-01T01:04:33;1.19;63.51
75457;SHT31;64036;48.266;14.192;2023-03-01T01:07:10;1.17;63.49
75457;SHT31;64036;48.266;14.192;2023-03-01T01:09:39;1.16;63.60
75457;SHT31;64036;48.266;14.192;2023-03-01T01:12:09;1.14;63.48
75457;SHT31;64036;48.266;14.192;2023-03-01T01:14:37;1.13;63.43
75457;SHT31;64036;48.266;14.192;2023-03-01T01:17:15;1.32;63.44
75457;SHT31;64036;48.266;14.192;2023-03-01T01:19:41;1.40;63.07
75457;SHT31;64036;48.266;14.192;2023-03-01T01:22:07;1.43;62.97
75457;SHT31;64036;48.266;14.192;2023-03-01T01:24:32;1.40;63.08
75457;SHT31;64036;48.266;14.192;2023-03-01T01:27:11;1.38;63.36
75457;SHT31;64036;48.266;14.192;2023-03-01T01:29:39;1.38;63.26
75457;SHT31;64036;48.266;14.192;2023-03-01T01:32:05;1.31;63.74
75457;SHT31;64036;48.266;14.192;2023-03-01T01:34:30;1.29;63.76
75457;SHT31;64036;48.266;14.192;2023-03-01T01:37:11;1.25;64.03
75457;SHT31;64036;48.266;14.192;2023-03-01T01:39:51;1.19;64.02
75457;SHT31;64036;48.266;14.192;2023-03-01T01:42:17;1.16;64.17
75457;SHT31;64036;48.266;14.192;2023-03-01T01:44:45;1.12;64.16
75457;SHT31;64036;48.266;14.192;2023-03-01T01:47:20;1.12;63.86
75457;SHT31;64036;48.266;14.192;2023-03-01T01:49:53;1.13;63.90
75457;SHT31;64036;48.266;14.192;2023-03-01T01:52:29;1.12;63.69
75457;SHT31;64036;48.266;14.192;2023-03-01T01:55:07;1.12;63.39
75457;SHT31;64036;48.266;14.192;2023-03-01T01:57:52;1.12;63.10
75457;SHT31;64036;48.266;14.192;2023-03-01T02:00:30;1.15;62.93
75457;SHT31;64036;48.266;14.192;2023-03-01T02:07:27;1.14;62.77
75457;SHT31;64036;48.266;14.192;2023-03-01T02:09:59;1.15;62.82
75457;SHT31;64036;48.266;14.192;2023-03-01T02:12:28;1.14;62.81
75457;SHT31;64036;48.266;14.192;2023-03-01T02:15:06;1.15;62.61
75457;SHT31;64036;48.266;14.192;2023-03-01T02:17:49;1.14;62.54
75457;SHT31;64036;48.266;14.192;2023-03-01T02:20:31;1.15;62.46
75457;SHT31;64036;48.266;14.192;2023-03-01T02:23:23;1.15;62.32
75457;SHT31;64036;48.266;14.192;2023-03-01T02:25:58;1.17;62.18
75457;SHT31;64036;48.266;14.192;2023-03-01T02:28:42;1.19;62.24
75457;SHT31;64036;48.266;14.192;2023-03-01T02:31:22;1.22;62.05
75457;SHT31;64036;48.266;14.192;2023-03-01T02:34:13;1.22;62.10
75457;SHT31;64036;48.266;14.192;2023-03-01T02:37:00;1.23;62.02
75457;SHT31;64036;48.266;14.192;2023-03-01T02:39:42;1.22;62.06
75457;SHT31;64036;48.266;14.192;2023-03-01T02:42:16;1.23;62.13
75457;SHT31;64036;48.266;14.192;2023-03-01T02:44:50;1.20;62.07
75457;SHT31;64036;48.266;14.192;2023-03-01T02:47:25;1.20;62.07
75457;SHT31;64036;48.266;14.192;2023-03-01T02:49:54;1.20;61.97
75457;SHT31;64036;48.266;14.192;2023-03-01T02:55:18;1.22;62.03
75457;SHT31;64036;48.266;14.192;2023-03-01T02:57:52;1.21;62.03
75457;SHT31;64036;48.266;14.192;2023-03-01T03:00:28;1.21;61.93
75457;SHT31;64036;48.266;14.192;2023-03-01T03:03:15;1.21;61.91
75457;SHT31;64036;48.266;14.192;2023-03-01T03:05:44;1.19;61.91
75457;SHT31;64036;48.266;14.192;2023-03-01T03:08:21;1.18;61.87
75457;SHT31;64036;48.266;14.192;2023-03-01T03:10:48;1.19;61.81
75457;SHT31;64036;48.266;14.192;2023-03-01T03:13:14;1.20;61.78
75457;SHT31;64036;48.266;14.192;2023-03-01T03:15:43;1.18;61.80
75457;SHT31;64036;48.266;14.192;2023-03-01T03:18:12;1.20;61.63
75457;SHT31;64036;48.266;14.192;2023-03-01T03:20:44;1.20;61.83
75457;SHT31;64036;48.266;14.192;2023-03-01T03:23:18;1.20;61.62
75457;SHT31;64036;48.266;14.192;2023-03-01T03:25:48;1.21;61.74
75457;SHT31;64036;48.266;14.192;2023-03-01T03:28:20;1.19;61.98
75457;SHT31;64036;48.266;14.192;2023-03-01T03:30:54;1.18;61.85
75457;SHT31;64036;48.266;14.192;2023-03-01T03:33:20;1.17;61.97
75457;SHT31;64036;48.266;14.192;2023-03-01T03:35:51;1.14;62.24
75457;SHT31;64036;48.266;14.192;2023-03-01T03:38:18;1.09;62.82
75457;SHT31;64036;48.266;14.192;2023-03-01T03:40:49;1.03;63.20
75457;SHT31;64036;48.266;14.192;2023-03-01T03:43:29;1.02;62.49
75457;SHT31;64036;48.266;14.192;2023-03-01T03:46:09;1.04;62.33
75457;SHT31;64036;48.266;14.192;2023-03-01T03:48:38;1.05;62.21
75457;SHT31;64036;48.266;14.192;2023-03-01T03:51:28;1.05;62.28
75457;SHT31;64036;48.266;14.192;2023-03-01T03:53:59;1.05;62.18
75457;SHT31;64036;48.266;14.192;2023-03-01T03:56:27;1.06;62.06
75457;SHT31;64036;48.266;14.192;2023-03-01T03:58:59;1.08;61.96
75457;SHT31;64036;48.266;14.192;2023-03-01T04:01:25;1.09;61.93
75457;SHT31;64036;48.266;14.192;2023-03-01T04:03:51;1.11;61.71
75457;SHT31;64036;48.266;14.192;2023-03-01T04:06:28;1.12;62.01
75457;SHT31;64036;48.266;14.192;2023-03-01T04:08:57;1.04;63.32
75457;SHT31;64036;48.266;14.192;2023-03-01T04:11:29;0.93;63.62
75457;SHT31;64036;48.266;14.192;2023-03-01T04:13:56;0.82;64.20
75457;SHT31;64036;48.266;14.192;2023-03-01T04:16:24;0.76;64.20
75457;SHT31;64036;48.266;14.192;2023-03-01T04:18:50;0.73;64.24
75457;SHT31;64036;48.266;14.192;2023-03-01T04:21:19;0.74;63.96
75457;SHT31;64036;48.266;14.192;2023-03-01T04:23:51;0.78;63.27
75457;SHT31;64036;48.266;14.192;2023-03-01T04:26:20;0.82;63.10
75457;SHT31;64036;48.266;14.192;2023-03-01T04:28:45;0.87;62.75
75457;SHT31;64036;48.266;14.192;2023-03-01T04:31:16;0.93;62.46
75457;SHT31;64036;48.266;14.192;2023-03-01T04:33:50;0.99;62.31
75457;SHT31;64036;48.266;14.192;2023-03-01T04:38:54;0.97;63.10
75457;SHT31;64036;48.266;14.192;2023-03-01T04:41:39;0.95;63.12
75457;SHT31;64036;48.266;14.192;2023-03-01T04:44:08;0.94;62.90
75457;SHT31;64036;48.266;14.192;2023-03-01T04:46:44;0.97;62.64
75457;SHT31;64036;48.266;14.192;2023-03-01T04:49:10;0.98;62.80
75457;SHT31;64036;48.266;14.192;2023-03-01T04:51:41;0.98;62.29
75457;SHT31;64036;48.266;14.192;2023-03-01T04:54:08;1.02;62.08
75457;SHT31;64036;48.266;14.192;2023-03-01T04:56:36;1.04;61.88
75457;SHT31;64036;48.266;14.192;2023-03-01T04:59:02;1.06;61.63
75457;SHT31;64036;48.266;14.192;2023-03-01T05:01:30;1.08;61.71
75457;SHT31;64036;48.266;14.192;2023-03-01T05:03:56;1.09;61.57
75457;SHT31;64036;48.266;14.192;2023-03-01T05:06:35;1.10;61.77
75457;SHT31;64036;48.266;14.192;2023-03-01T05:09:01;1.08;61.80
75457;SHT31;64036;48.266;14.192;2023-03-01T05:11:30;1.09;61.67
75457;SHT31;64036;48.266;14.192;2023-03-01T05:13:58;1.09;61.80
75457;SHT31;64036;48.266;14.192;2023-03-01T05:16:28;1.09;61.78
75457;SHT31;64036;48.266;14.192;2023-03-01T05:18:55;1.10;61.71
75457;SHT31;64036;48.266;14.192;2023-03-01T05:21:24;1.07;61.96
75457;SHT31;64036;48.266;14.192;2023-03-01T05:24:23;0.95;63.09
75457;SHT31;64036;48.266;14.192;2023-03-01T05:26:52;0.82;63.59
75457;SHT31;64036;48.266;14.192;2023-03-01T05:29:19;0.71;63.97
75457;SHT31;64036;48.266;14.192;2023-03-01T05:31:56;0.61;64.36
75457;SHT31;64036;48.266;14.192;2023-03-01T05:34:28;0.48;64.84
75457;SHT31;64036;48.266;14.192;2023-03-01T05:37:00;0.35;65.36
75457;SHT31;64036;48.266;14.192;2023-03-01T05:39:27;0.23;65.69
75457;SHT31;64036;48.266;14.192;2023-03-01T05:42:02;0.14;66.01
75457;SHT31;64036;48.266;14.192;2023-03-01T05:44:39;0.05;66.88
75457;SHT31;64036;48.266;14.192;2023-03-01T05:47:14;-0.04;67.73
75457;SHT31;64036;48.266;14.192;2023-03-01T05:49:40;-0.07;67.90
75457;SHT31;64036;48.266;14.192;2023-03-01T05:52:08;-0.10;68.04
75457;SHT31;64036;48.266;14.192;2023-03-01T05:54:37;-0.12;68.44
75457;SHT31;64036;48.266;14.192;2023-03-01T05:57:03;-0.13;68.64
75457;SHT31;64036;48.266;14.192;2023-03-01T05:59:36;-0.12;68.50
75457;SHT31;64036;48.266;14.192;2023-03-01T06:02:05;-0.11;68.57
75457;SHT31;64036;48.266;14.192;2023-03-01T06:04:37;-0.08;68.54
75457;SHT31;64036;48.266;14.192;2023-03-01T06:07:03;-0.04;68.56
75457;SHT31;64036;48.266;14.192;2023-03-01T06:09:34;0.01;68.42
75457;SHT31;64036;48.266;14.192;2023-03-01T06:12:00;0.09;68.36
75457;SHT31;64036;48.266;14.192;2023-03-01T06:14:30;0.17;68.17
75457;SHT31;64036;48.266;14.192;2023-03-01T06:16:57;0.30;67.92
75457;SHT31;64036;48.266;14.192;2023-03-01T06:19:23;0.62;67.35
75457;SHT31;64036;48.266;14.192;2023-03-01T06:21:52;1.07;66.39
75457;SHT31;64036;48.266;14.192;2023-03-01T06:24:17;1.59;65.47
75457;SHT31;64036;48.266;14.192;2023-03-01T06:26:43;2.05;64.16
75457;SHT31;64036;48.266;14.192;2023-03-01T06:29:14;2.51;63.12
75457;SHT31;64036;48.266;14.192;2023-03-01T06:31:40;3.05;61.73
75457;SHT31;64036;48.266;14.192;2023-03-01T06:34:06;3.50;60.55
75457;SHT31;64036;48.266;14.192;2023-03-01T06:36:37;3.92;59.06
75457;SHT31;64036;48.266;14.192;2023-03-01T06:39:07;4.50;58.79
75457;SHT31;64036;48.266;14.192;2023-03-01T06:41:33;5.24;57.21
75457;SHT31;64036;48.266;14.192;2023-03-01T06:43:59;5.81;55.32
75457;SHT31;64036;48.266;14.192;2023-03-01T06:46:25;6.08;53.30
75457;SHT31;64036;48.266;14.192;2023-03-01T06:48:56;6.18;51.86
75457;SHT31;64036;48.266;14.192;2023-03-01T06:51:21;6.42;51.49
75457;SHT31;64036;48.266;14.192;2023-03-01T06:53:47;6.59;50.27
75457;SHT31;64036;48.266;14.192;2023-03-01T06:56:12;6.86;49.94
75457;SHT31;64036;48.266;14.192;2023-03-01T06:58:41;7.11;49.21
75457;SHT31;64036;48.266;14.192;2023-03-01T07:01:07;7.38;48.89
75457;SHT31;64036;48.266;14.192;2023-03-01T07:03:34;7.61;48.12
75457;SHT31;64036;48.266;14.192;2023-03-01T07:06:00;7.86;47.47
75457;SHT31;64036;48.266;14.192;2023-03-01T07:08:26;8.27;47.00
75457;SHT31;64036;48.266;14.192;2023-03-01T07:10:56;8.69;45.73
75457;SHT31;64036;48.266;14.192;2023-03-01T07:13:23;9.07;45.05
75457;SHT31;64036;48.266;14.192;2023-03-01T07:15:51;9.51;44.39
75457;SHT31;64036;48.266;14.192;2023-03-01T07:18:20;9.79;43.20
75457;SHT31;64036;48.266;14.192;2023-03-01T07:20:46;10.19;42.62
75457;SHT31;64036;48.266;14.192;2023-03-01T07:23:12;10.41;41.14
75457;SHT31;64036;48.266;14.192;2023-03-01T07:25:38;10.54;41.00
75457;SHT31;64036;48.266;14.192;2023-03-01T07:28:04;10.79;40.38
75457;SHT31;64036;48.266;14.192;2023-03-01T07:30:29;11.04;39.99
75457;SHT31;64036;48.266;14.192;2023-03-01T07:32:56;11.26;39.76
75457;SHT31;64036;48.266;14.192;2023-03-01T07:35:23;11.21;39.38
75457;SHT31;64036;48.266;14.192;2023-03-01T07:37:51;10.88;39.21
75457;SHT31;64036;48.266;14.192;2023-03-01T07:40:17;10.87;39.44
75457;SHT31;64036;48.266;14.192;2023-03-01T07:42:54;10.95;39.62
75457;SHT31;64036;48.266;14.192;2023-03-01T07:45:42;11.34;39.43
75457;SHT31;64036;48.266;14.192;2023-03-01T07:48:08;11.68;38.81
75457;SHT31;64036;48.266;14.192;2023-03-01T07:50:33;11.92;37.92
75457;SHT31;64036;48.266;14.192;2023-03-01T07:52:59;12.00;37.63
75457;SHT31;64036;48.266;14.192;2023-03-01T07:55:25;12.21;38.08
75457;SHT31;64036;48.266;14.192;2023-03-01T07:57:51;12.25;37.19
75457;SHT31;64036;48.266;14.192;2023-03-01T08:00:17;12.18;37.10
75457;SHT31;64036;48.266;14.192;2023-03-01T08:02:43;11.76;37.52
75457;SHT31;64036;48.266;14.192;2023-03-01T08:05:09;11.60;38.49
75457;SHT31;64036;48.266;14.192;2023-03-01T08:07:36;11.26;38.37
75457;SHT31;64036;48.266;14.192;2023-03-01T08:10:02;11.02;38.73
75457;SHT31;64036;48.266;14.192;2023-03-01T08:12:28;10.98;39.23
75457;SHT31;64036;48.266;14.192;2023-03-01T08:14:54;11.14;39.16
75457;SHT31;64036;48.266;14.192;2023-03-01T08:17:23;11.63;38.26
75457;SHT31;64036;48.266;14.192;2023-03-01T08:19:50;11.68;37.75
75457;SHT31;64036;48.266;14.192;2023-03-01T08:22:31;12.06;38.78
75457;SHT31;64036;48.266;14.192;2023-03-01T08:24:57;12.60;36.72
75457;SHT31;64036;48.266;14.192;2023-03-01T08:27:24;12.76;36.18
75457;SHT31;64036;48.266;14.192;2023-03-01T08:29:50;12.89;36.16
75457;SHT31;64036;48.266;14.192;2023-03-01T08:32:15;13.11;36.05
75457;SHT31;64036;48.266;14.192;2023-03-01T08:34:41;13.05;36.01
75457;SHT31;64036;48.266;14.192;2023-03-01T08:37:07;12.91;36.30
75457;SHT31;64036;48.266;14.192;2023-03-01T08:39:32;12.95;35.74
75457;SHT31;64036;48.266;14.192;2023-03-01T08:41:58;12.89;35.29
75457;SHT31;64036;48.266;14.192;2023-03-01T08:44:24;13.04;35.59
75457;SHT31;64036;48.266;14.192;2023-03-01T08:46:50;13.55;34.90
75457;SHT31;64036;48.266;14.192;2023-03-01T08:49:19;13.66;34.57
75457;SHT31;64036;48.266;14.192;2023-03-01T08:51:45;13.87;34.74
75457;SHT31;64036;48.266;14.192;2023-03-01T08:54:16;14.10;33.36
75457;SHT31;64036;48.266;14.192;2023-03-01T08:56:45;13.92;34.02
75457;SHT31;64036;48.266;14.192;2023-03-01T08:59:13;14.12;33.83
75457;SHT31;64036;48.266;14.192;2023-03-01T09:01:41;14.19;33.73
75457;SHT31;64036;48.266;14.192;2023-03-01T09:04:14;14.22;33.12
75457;SHT31;64036;48.266;14.192;2023-03-01T09:06:42;14.44;33.29
75457;SHT31;64036;48.266;14.192;2023-03-01T09:09:13;14.66;33.02
75457;SHT31;64036;48.266;14.192;2023-03-01T09:11:47;14.70;32.54
75457;SHT31;64036;48.266;14.192;2023-03-01T09:14:15;14.76;32.59
75457;SHT31;64036;48.266;14.192;2023-03-01T09:16:41;14.60;32.37
75457;SHT31;64036;48.266;14.192;2023-03-01T09:19:07;14.46;32.78
75457;SHT31;64036;48.266;14.192;2023-03-01T09:21:33;14.31;32.69
75457;SHT31;64036;48.266;14.192;2023-03-01T09:23:59;14.22;33.60
75457;SHT31;64036;48.266;14.192;2023-03-01T09:26:24;14.10;33.96
75457;SHT31;64036;48.266;14.192;2023-03-01T09:28:52;13.92;33.68
75457;SHT31;64036;48.266;14.192;2023-03-01T09:31:20;13.81;34.31
75457;SHT31;64036;48.266;14.192;2023-03-01T09:33:48;13.82;34.28
75457;SHT31;64036;48.266;14.192;2023-03-01T09:36:18;13.64;34.89
75457;SHT31;64036;48.266;14.192;2023-03-01T09:38:46;13.35;36.06
75457;SHT31;64036;48.266;14.192;2023-03-01T09:47:08;12.56;37.47
75457;SHT31;64036;48.266;14.192;2023-03-01T09:52:49;12.43;38.63
75457;SHT31;64036;48.266;14.192;2023-03-01T09:59:23;11.95;39.05
75457;SHT31;64036;48.266;14.192;2023-03-01T10:02:24;11.76;40.12
75457;SHT31;64036;48.266;14.192;2023-03-01T10:08:29;10.97;42.54
75457;SHT31;64036;48.266;14.192;2023-03-01T10:11:20;10.89;42.45
75457;SHT31;64036;48.266;14.192;2023-03-01T10:17:04;10.95;43.09
75457;SHT31;64036;48.266;14.192;2023-03-01T10:19:59;10.99;42.17
75457;SHT31;64036;48.266;14.192;2023-03-01T10:22:48;11.16;42.58
75457;SHT31;64036;48.266;14.192;2023-03-01T10:25:29;11.34;42.68
75457;SHT31;64036;48.266;14.192;2023-03-01T10:28:13;11.25;43.09
75457;SHT31;64036;48.266;14.192;2023-03-01T10:31:01;11.40;43.25
75457;SHT31;64036;48.266;14.192;2023-03-01T10:33:31;11.46;42.82
75457;SHT31;64036;48.266;14.192;2023-03-01T10:36:01;11.36;42.78
75457;SHT31;64036;48.266;14.192;2023-03-01T10:38:30;11.15;42.96
75457;SHT31;64036;48.266;14.192;2023-03-01T10:41:13;11.10;44.11
75457;SHT31;64036;48.266;14.192;2023-03-01T10:46:35;11.13;43.72
75457;SHT31;64036;48.266;14.192;2023-03-01T10:49:20;11.03;43.92
75457;SHT31;64036;48.266;14.192;2023-03-01T10:51:53;11.01;44.15
75457;SHT31;64036;48.266;14.192;2023-03-01T10:54:37;11.14;44.22
75457;SHT31;64036;48.266;14.192;2023-03-01T10:57:05;11.16;43.89
75457;SHT31;64036;48.266;14.192;2023-03-01T10:59:35;11.23;43.72
75457;SHT31;64036;48.266;14.192;2023-03-01T11:05:02;10.87;44.91
75457;SHT31;64036;48.266;14.192;2023-03-01T11:07:51;10.78;45.59
75457;SHT31;64036;48.266;14.192;2023-03-01T11:10:31;10.62;46.33
75457;SHT31;64036;48.266;14.192;2023-03-01T11:16:05;10.84;45.34
75457;SHT31;64036;48.266;14.192;2023-03-01T11:18:35;10.99;45.00
75457;SHT31;64036;48.266;14.192;2023-03-01T11:21:01;10.97;44.50
75457;SHT31;64036;48.266;14.192;2023-03-01T11:23:38;11.00;45.45
75457;SHT31;64036;48.266;14.192;2023-03-01T11:26:07;11.16;44.88
75457;SHT31;64036;48.266;14.192;2023-03-01T11:28:37;11.10;45.64
75457;SHT31;64036;48.266;14.192;2023-03-01T11:31:11;11.10;45.64
75457;SHT31;64036;48.266;14.192;2023-03-01T11:33:52;11.14;45.22
75457;SHT31;64036;48.266;14.192;2023-03-01T11:36:51;11.34;45.27
75457;SHT31;64036;48.266;14.192;2023-03-01T11:39:31;11.30;44.63
75457;SHT31;64036;48.266;14.192;2023-03-01T11:42:12;11.16;46.23
75457;SHT31;64036;48.266;14.192;2023-03-01T11:44:56;11.03;45.49
75457;SHT31;64036;48.266;14.192;2023-03-01T11:56:31;10.74;46.73
75457;SHT31;64036;48.266;14.192;2023-03-01T11:59:06;10.93;46.66
75457;SHT31;64036;48.266;14.192;2023-03-01T12:04:32;10.92;47.72
75457;SHT31;64036;48.266;14.192;2023-03-01T12:10:19;10.86;47.08
75457;SHT31;64036;48.266;14.192;2023-03-01T12:13:21;11.00;47.76
75457;SHT31;64036;48.266;14.192;2023-03-01T12:19:31;11.22;46.67
75457;SHT31;64036;48.266;14.192;2023-03-01T12:22:29;11.19;47.52
75457;SHT31;64036;48.266;14.192;2023-03-01T12:33:15;11.10;47.64
75457;SHT31;64036;48.266;14.192;2023-03-01T12:39:21;11.18;47.21
75457;SHT31;64036;48.266;14.192;2023-03-01T12:44:36;11.15;47.28
75457;SHT31;64036;48.266;14.192;2023-03-01T12:51:15;11.33;47.00
75457;SHT31;64036;48.266;14.192;2023-03-01T12:53:49;11.23;46.57
75457;SHT31;64036;48.266;14.192;2023-03-01T12:56:22;11.20;47.24
75457;SHT31;64036;48.266;14.192;2023-03-01T13:08:46;11.18;48.48
75457;SHT31;64036;48.266;14.192;2023-03-01T13:11:43;11.02;47.85
75457;SHT31;64036;48.266;14.192;2023-03-01T13:14:57;10.96;48.51
75457;SHT31;64036;48.266;14.192;2023-03-01T13:26:03;10.85;48.95
75457;SHT31;64036;48.266;14.192;2023-03-01T13:28:41;10.96;49.51
75457;SHT31;64036;48.266;14.192;2023-03-01T13:33:48;10.92;50.36
75457;SHT31;64036;48.266;14.192;2023-03-01T13:38:58;10.58;49.46
75457;SHT31;64036;48.266;14.192;2023-03-01T13:49:43;10.57;48.99
75457;SHT31;64036;48.266;14.192;2023-03-01T13:55:18;10.48;49.23
75457;SHT31;64036;48.266;14.192;2023-03-01T13:57:54;10.42;49.81
75457;SHT31;64036;48.266;14.192;2023-03-01T14:00:31;10.41;49.23
75457;SHT31;64036;48.266;14.192;2023-03-01T14:03:09;10.41;50.11
75457;SHT31;64036;48.266;14.192;2023-03-01T14:05:44;10.39;50.38
75457;SHT31;64036;48.266;14.192;2023-03-01T14:08:36;10.35;49.45
75457;SHT31;64036;48.266;14.192;2023-03-01T14:14:01;10.44;50.98
75457;SHT31;64036;48.266;14.192;2023-03-01T14:17:10;10.49;50.78
75457;SHT31;64036;48.266;14.192;2023-03-01T14:19:49;10.50;51.47
75457;SHT31;64036;48.266;14.192;2023-03-01T14:22:24;10.44;50.12
75457;SHT31;64036;48.266;14.192;2023-03-01T14:27:37;10.44;49.65
75457;SHT31;64036;48.266;14.192;2023-03-01T14:30:27;10.37;50.11
75457;SHT31;64036;48.266;14.192;2023-03-01T14:33:03;10.31;50.24
75457;SHT31;64036;48.266;14.192;2023-03-01T14:36:13;10.26;50.71
75457;SHT31;64036;48.266;14.192;2023-03-01T14:39:34;10.20;50.28
75457;SHT31;64036;48.266;14.192;2023-03-01T14:42:04;10.12;50.91
75457;SHT31;64036;48.266;14.192;2023-03-01T14:44:33;10.10;51.47
75457;SHT31;64036;48.266;14.192;2023-03-01T14:47:02;10.09;51.50
75457;SHT31;64036;48.266;14.192;2023-03-01T14:49:30;10.04;51.31
75457;SHT31;64036;48.266;14.192;2023-03-01T14:52:04;10.02;51.57
75457;SHT31;64036;48.266;14.192;2023-03-01T14:58:09;9.91;52.00
75457;SHT31;64036;48.266;14.192;2023-03-01T15:04:24;9.80;51.87
75457;SHT31;64036;48.266;14.192;2023-03-01T15:06:53;9.71;51.73
75457;SHT31;64036;48.266;14.192;2023-03-01T15:09:21;9.64;52.57
75457;SHT31;64036;48.266;14.192;2023-03-01T15:11:47;9.60;52.63
75457;SHT31;64036;48.266;14.192;2023-03-01T15:17:33;9.48;53.38
75457;SHT31;64036;48.266;14.192;2023-03-01T15:20:02;9.41;53.21
75457;SHT31;64036;48.266;14.192;2023-03-01T15:22:48;9.35;53.32
75457;SHT31;64036;48.266;14.192;2023-03-01T15:25:16;9.28;53.07
75457;SHT31;64036;48.266;14.192;2023-03-01T15:27:45;9.27;53.25
75457;SHT31;64036;48.266;14.192;2023-03-01T15:35:59;9.11;53.14
75457;SHT31;64036;48.266;14.192;2023-03-01T15:42:40;9.05;54.02
75457;SHT31;64036;48.266;14.192;2023-03-01T15:47:55;8.99;53.65
75457;SHT31;64036;48.266;14.192;2023-03-01T15:50:43;8.93;54.35
75457;SHT31;64036;48.266;14.192;2023-03-01T15:53:11;8.88;54.70
75457;SHT31;64036;48.266;14.192;2023-03-01T15:55:45;8.81;54.44
75457;SHT31;64036;48.266;14.192;2023-03-01T16:00:46;8.66;54.57
75457;SHT31;64036;48.266;14.192;2023-03-01T16:03:14;8.61;54.61
75457;SHT31;64036;48.266;14.192;2023-03-01T16:05:47;8.59;54.63
75457;SHT31;64036;48.266;14.192;2023-03-01T16:08:14;8.53;54.86
75457;SHT31;64036;48.266;14.192;2023-03-01T16:10:41;8.46;55.08
75457;SHT31;64036;48.266;14.192;2023-03-01T16:13:10;8.39;55.39
75457;SHT31;64036;48.266;14.192;2023-03-01T16:15:44;8.31;55.25
75457;SHT31;64036;48.266;14.192;2023-03-01T16:18:13;8.23;55.15
75457;SHT31;64036;48.266;14.192;2023-03-01T16:20:44;8.15;55.54
75457;SHT31;64036;48.266;14.192;2023-03-01T16:23:18;8.04;55.77
75457;SHT31;64036;48.266;14.192;2023-03-01T16:25:43;7.99;55.35
75457;SHT31;64036;48.266;14.192;2023-03-01T16:28:09;7.95;55.52
75457;SHT31;64036;48.266;14.192;2023-03-01T16:30:36;7.88;55.67
75457;SHT31;64036;48.266;14.192;2023-03-01T16:33:04;7.82;55.98
75457;SHT31;64036;48.266;14.192;2023-03-01T16:35:38;7.77;56.04
75457;SHT31;64036;48.266;14.192;2023-03-01T16:38:19;7.69;56.32
75457;SHT31;64036;48.266;14.192;2023-03-01T16:40:49;7.61;56.61
75457;SHT31;64036;48.266;14.192;2023-03-01T16:43:16;7.54;56.87
75457;SHT31;64036;48.266;14.192;2023-03-01T16:45:56;7.46;57.33
75457;SHT31;64036;48.266;14.192;2023-03-01T16:48:29;7.38;57.78
75457;SHT31;64036;48.266;14.192;2023-03-01T16:50:55;7.30;58.20
75457;SHT31;64036;48.266;14.192;2023-03-01T16:53:23;7.22;58.47
75457;SHT31;64036;48.266;14.192;2023-03-01T16:55:58;7.18;58.14
75457;SHT31;64036;48.266;14.192;2023-03-01T16:58:24;7.14;58.13
75457;SHT31;64036;48.266;14.192;2023-03-01T17:00:51;7.11;58.29
75457;SHT31;64036;48.266;14.192;2023-03-01T17:03:22;7.05;58.28
75457;SHT31;64036;48.266;14.192;2023-03-01T17:05:55;6.98;58.45
75457;SHT31;64036;48.266;14.192;2023-03-01T17:08:27;6.89;58.82
75457;SHT31;64036;48.266;14.192;2023-03-01T17:10:52;6.78;59.26
75457;SHT31;64036;48.266;14.192;2023-03-01T17:13:18;6.68;59.59
75457;SHT31;64036;48.266;14.192;2023-03-01T17:15:44;6.61;59.64
75457;SHT31;64036;48.266;14.192;2023-03-01T17:18:12;6.53;59.41
75457;SHT31;64036;48.266;14.192;2023-03-01T17:20:41;6.48;59.37
75457;SHT31;64036;48.266;14.192;2023-03-01T17:23:13;6.42;59.28
75457;SHT31;64036;48.266;14.192;2023-03-01T17:25:42;6.38;59.32
75457;SHT31;64036;48.266;14.192;2023-03-01T17:28:26;6.32;59.58
75457;SHT31;64036;48.266;14.192;2023-03-01T17:30:54;6.24;59.87
75457;SHT31;64036;48.266;14.192;2023-03-01T17:33:20;6.18;59.88
75457;SHT31;64036;48.266;14.192;2023-03-01T17:35:46;6.14;60.04
75457;SHT31;64036;48.266;14.192;2023-03-01T17:38:15;6.06;60.29
75457;SHT31;64036;48.266;14.192;2023-03-01T17:40:47;6.01;60.33
75457;SHT31;64036;48.266;14.192;2023-03-01T17:43:18;5.95;60.28
75457;SHT31;64036;48.266;14.192;2023-03-01T17:45:52;5.92;60.29
75457;SHT31;64036;48.266;14.192;2023-03-01T17:48:34;5.89;60.52
75457;SHT31;64036;48.266;14.192;2023-03-01T17:51:07;5.86;60.57
75457;SHT31;64036;48.266;14.192;2023-03-01T17:53:40;5.81;60.72
75457;SHT31;64036;48.266;14.192;2023-03-01T17:56:15;5.75;60.86
75457;SHT31;64036;48.266;14.192;2023-03-01T17:58:41;5.69;60.84
75457;SHT31;64036;48.266;14.192;2023-03-01T18:03:39;5.63;61.20
75457;SHT31;64036;48.266;14.192;2023-03-01T18:06:16;5.60;61.45
75457;SHT31;64036;48.266;14.192;2023-03-01T18:08:45;5.56;61.81
75457;SHT31;64036;48.266;14.192;2023-03-01T18:11:15;5.51;61.64
75457;SHT31;64036;48.266;14.192;2023-03-01T18:13:42;5.47;61.63
75457;SHT31;64036;48.266;14.192;2023-03-01T18:16:10;5.43;61.82
75457;SHT31;64036;48.266;14.192;2023-03-01T18:18:42;5.37;61.90
75457;SHT31;64036;48.266;14.192;2023-03-01T18:21:14;5.31;61.97